sensor_id;sensor_type;location;lat;lon;timestamp;P1;durP1;ratioP1;P2;durP2;ratioP2
73474;SDS011;61711;52.266;10.542;2023-07-24T00:00:19;2.47;;;1.63;;
73474;SDS011;61711;52.266;10.542;2023-07-24T00:02:45;2.55;;;1.85;;
73474;SDS011;61711;52.266;10.542;2023-07-24T00:05:11;2.20;;;1.65;;
73474;SDS011;61711;52.266;10.542;2023-07-24T00:07:37;2.13;;;1.55;;
73474;SDS011;61711;52.266;10.542;2023-07-24T00:10:03;2.53;;;1.90;;
73474;SDS011;61711;52.266;10.542;2023-07-24T00:12:29;2.65;;;1.80;;
73474;SDS011;61711;52.266;10.542;2023-07-24T00:14:56;3.20;;;1.88;;
73474;SDS011;61711;52.266;10.542;2023-07-24T00:17:22;2.58;;;1.80;;
73474;SDS011;61711;52.266;10.542;2023-07-24T00:19:48;2.30;;;1.60;;
73474;SDS011;61711;52.266;10.542;2023-07-24T00:22:14;3.28;;;1.90;;
73474;SDS011;61711;52.266;10.542;2023-07-24T00:24:40;2.80;;;1.80;;
73474;SDS011;61711;52.266;10.542;2023-07-24T00:27:06;2.20;;;1.70;;
73474;SDS011;61711;52.266;10.542;2023-07-24T00:29:32;3.95;;;1.70;;
73474;SDS011;61711;52.266;10.542;2023-07-24T00:31:58;1.75;;;1.40;;
73474;SDS011;61711;52.266;10.542;2023-07-24T00:34:24;3.67;;;1.35;;
73474;SDS011;61711;52.266;10.542;2023-07-24T00:36:50;1.98;;;1.70;;
73474;SDS011;61711;52.266;10.542;2023-07-24T00:39:16;2.20;;;1.77;;
73474;SDS011;61711;52.266;10.542;2023-07-24T00:41:42;2.45;;;1.80;;
73474;SDS011;61711;52.266;10.542;2023-07-24T00:44:08;2.00;;;1.40;;
73474;SDS011;61711;52.266;10.542;2023-07-24T00:46:34;2.20;;;1.50;;
73474;SDS011;61711;52.266;10.542;2023-07-24T00:49:01;2.35;;;1.35;;
73474;SDS011;61711;52.266;10.542;2023-07-24T00:51:28;1.88;;;1.45;;
73474;SDS011;61711;52.266;10.542;2023-07-24T00:53:54;2.45;;;1.95;;
73474;SDS011;61711;52.266;10.542;2023-07-24T00:56:21;2.40;;;1.40;;
73474;SDS011;61711;52.266;10.542;2023-07-24T00:58:47;1.73;;;1.50;;
73474;SDS011;61711;52.266;10.542;2023-07-24T01:01:13;2.30;;;1.50;;
73474;SDS011;61711;52.266;10.542;2023-07-24T01:03:40;1.73;;;1.40;;
73474;SDS011;61711;52.266;10.542;2023-07-24T01:06:08;3.05;;;1.30;;
73474;SDS011;61711;52.266;10.542;2023-07-24T01:08:35;1.88;;;1.15;;
73474;SDS011;61711;52.266;10.542;2023-07-24T01:11:03;1.77;;;1.40;;
73474;SDS011;61711;52.266;10.542;2023-07-24T01:13:31;1.73;;;1.50;;
73474;SDS011;61711;52.266;10.542;2023-07-24T01:16:08;2.42;;;1.40;;
73474;SDS011;61711;52.266;10.542;2023-07-24T01:18:35;1.75;;;1.27;;
73474;SDS011;61711;52.266;10.542;2023-07-24T01:21:02;1.85;;;1.23;;
73474;SDS011;61711;52.266;10.542;2023-07-24T01:26:02;1.90;;;1.52;;
73474;SDS011;61711;52.266;10.542;2023-07-24T01:28:28;1.85;;;1.10;;
73474;SDS011;61711;52.266;10.542;2023-07-24T01:30:54;1.98;;;1.40;;
73474;SDS011;61711;52.266;10.542;2023-07-24T01:33:21;2.28;;;1.30;;
73474;SDS011;61711;52.266;10.542;2023-07-24T01:35:52;1.50;;;1.23;;
73474;SDS011;61711;52.266;10.542;2023-07-24T01:38:19;1.20;;;1.10;;
73474;SDS011;61711;52.266;10.542;2023-07-24T01:40:45;1.70;;;1.30;;
73474;SDS011;61711;52.266;10.542;2023-07-24T01:43:11;1.52;;;1.42;;
73474;SDS011;61711;52.266;10.542;2023-07-24T01:45:37;1.55;;;1.27;;
73474;SDS011;61711;52.266;10.542;2023-07-24T01:48:03;2.17;;;1.48;;
73474;SDS011;61711;52.266;10.542;2023-07-24T01:50:30;1.58;;;1.35;;
73474;SDS011;61711;52.266;10.542;2023-07-24T01:52:56;3.08;;;1.70;;
73474;SDS011;61711;52.266;10.542;2023-07-24T01:55:22;1.70;;;1.45;;
73474;SDS011;61711;52.266;10.542;2023-07-24T01:57:48;1.70;;;1.40;;
73474;SDS011;61711;52.266;10.542;2023-07-24T02:00:14;1.55;;;1.40;;
73474;SDS011;61711;52.266;10.542;2023-07-24T02:02:40;3.88;;;1.45;;
73474;SDS011;61711;52.266;10.542;2023-07-24T02:05:06;1.55;;;1.40;;
73474;SDS011;61711;52.266;10.542;2023-07-24T02:07:32;2.55;;;1.50;;
73474;SDS011;61711;52.266;10.542;2023-07-24T02:09:58;2.05;;;1.60;;
73474;SDS011;61711;52.266;10.542;2023-07-24T02:12:24;2.45;;;1.40;;
73474;SDS011;61711;52.266;10.542;2023-07-24T02:14:50;2.20;;;1.55;;
73474;SDS011;61711;52.266;10.542;2023-07-24T02:17:17;2.10;;;1.33;;
73474;SDS011;61711;52.266;10.542;2023-07-24T02:19:43;2.88;;;1.60;;
73474;SDS011;61711;52.266;10.542;2023-07-24T02:22:09;2.35;;;1.52;;
73474;SDS011;61711;52.266;10.542;2023-07-24T02:24:35;3.03;;;1.65;;
73474;SDS011;61711;52.266;10.542;2023-07-24T02:27:01;2.65;;;1.75;;
73474;SDS011;61711;52.266;10.542;2023-07-24T02:29:27;2.80;;;1.63;;
73474;SDS011;61711;52.266;10.542;2023-07-24T02:31:53;2.25;;;1.83;;
73474;SDS011;61711;52.266;10.542;2023-07-24T02:34:20;2.92;;;1.48;;
73474;SDS011;61711;52.266;10.542;2023-07-24T02:36:51;2.28;;;1.70;;
73474;SDS011;61711;52.266;10.542;2023-07-24T02:39:18;2.28;;;1.55;;
73474;SDS011;61711;52.266;10.542;2023-07-24T02:41:44;2.05;;;1.67;;
73474;SDS011;61711;52.266;10.542;2023-07-24T02:44:10;2.78;;;1.70;;
73474;SDS011;61711;52.266;10.542;2023-07-24T02:46:36;2.60;;;1.60;;
73474;SDS011;61711;52.266;10.542;2023-07-24T02:49:02;1.98;;;1.50;;
73474;SDS011;61711;52.266;10.542;2023-07-24T02:51:29;1.85;;;1.60;;
73474;SDS011;61711;52.266;10.542;2023-07-24T02:53:55;2.70;;;1.73;;
73474;SDS011;61711;52.266;10.542;2023-07-24T02:56:21;3.08;;;1.73;;
73474;SDS011;61711;52.266;10.542;2023-07-24T02:58:48;2.08;;;1.88;;
73474;SDS011;61711;52.266;10.542;2023-07-24T03:01:14;2.78;;;1.83;;
73474;SDS011;61711;52.266;10.542;2023-07-24T03:03:40;2.33;;;1.80;;
73474;SDS011;61711;52.266;10.542;2023-07-24T03:06:06;2.55;;;1.85;;
73474;SDS011;61711;52.266;10.542;2023-07-24T03:08:32;2.97;;;1.80;;
73474;SDS011;61711;52.266;10.542;2023-07-24T03:10:59;3.58;;;1.92;;
73474;SDS011;61711;52.266;10.542;2023-07-24T03:13:25;3.22;;;2.30;;
73474;SDS011;61711;52.266;10.542;2023-07-24T03:15:51;3.88;;;2.30;;
73474;SDS011;61711;52.266;10.542;2023-07-24T03:18:18;3.60;;;2.15;;
73474;SDS011;61711;52.266;10.542;2023-07-24T03:20:43;2.72;;;2.20;;
73474;SDS011;61711;52.266;10.542;2023-07-24T03:23:09;3.22;;;2.10;;
73474;SDS011;61711;52.266;10.542;2023-07-24T03:25:35;3.17;;;2.30;;
73474;SDS011;61711;52.266;10.542;2023-07-24T03:28:01;4.75;;;2.60;;
73474;SDS011;61711;52.266;10.542;2023-07-24T03:30:27;5.22;;;2.72;;
73474;SDS011;61711;52.266;10.542;2023-07-24T03:32:53;5.07;;;2.45;;
73474;SDS011;61711;52.266;10.542;2023-07-24T03:35:19;5.40;;;2.60;;
73474;SDS011;61711;52.266;10.542;2023-07-24T03:37:45;5.30;;;2.80;;
73474;SDS011;61711;52.266;10.542;2023-07-24T03:40:12;4.40;;;2.63;;
73474;SDS011;61711;52.266;10.542;2023-07-24T03:42:38;3.95;;;2.72;;
73474;SDS011;61711;52.266;10.542;2023-07-24T03:45:05;4.82;;;2.70;;
73474;SDS011;61711;52.266;10.542;2023-07-24T03:47:31;4.28;;;3.05;;
73474;SDS011;61711;52.266;10.542;2023-07-24T03:49:57;6.78;;;3.08;;
73474;SDS011;61711;52.266;10.542;2023-07-24T03:52:23;9.27;;;5.50;;
73474;SDS011;61711;52.266;10.542;2023-07-24T03:54:50;8.25;;;4.47;;
73474;SDS011;61711;52.266;10.542;2023-07-24T03:57:16;3.88;;;3.22;;
73474;SDS011;61711;52.266;10.542;2023-07-24T03:59:42;3.15;;;2.00;;
73474;SDS011;61711;52.266;10.542;2023-07-24T04:02:08;3.08;;;2.20;;
73474;SDS011;61711;52.266;10.542;2023-07-24T04:04:34;5.07;;;2.28;;
73474;SDS011;61711;52.266;10.542;2023-07-24T04:07:00;3.15;;;2.00;;
73474;SDS011;61711;52.266;10.542;2023-07-24T04:09:27;3.03;;;2.17;;
73474;SDS011;61711;52.266;10.542;2023-07-24T04:11:53;3.35;;;2.17;;
73474;SDS011;61711;52.266;10.542;2023-07-24T04:14:19;3.47;;;2.28;;
73474;SDS011;61711;52.266;10.542;2023-07-24T04:16:45;3.17;;;1.92;;
73474;SDS011;61711;52.266;10.542;2023-07-24T04:19:11;3.33;;;1.95;;
73474;SDS011;61711;52.266;10.542;2023-07-24T04:21:37;3.28;;;2.22;;
73474;SDS011;61711;52.266;10.542;2023-07-24T04:24:03;2.45;;;2.10;;
73474;SDS011;61711;52.266;10.542;2023-07-24T04:26:30;2.95;;;2.25;;
73474;SDS011;61711;52.266;10.542;2023-07-24T04:28:55;3.08;;;2.20;;
73474;SDS011;61711;52.266;10.542;2023-07-24T04:31:21;2.80;;;2.20;;
73474;SDS011;61711;52.266;10.542;2023-07-24T04:33:47;2.47;;;2.00;;
73474;SDS011;61711;52.266;10.542;2023-07-24T04:36:13;3.15;;;2.05;;
73474;SDS011;61711;52.266;10.542;2023-07-24T04:38:39;3.00;;;2.13;;
73474;SDS011;61711;52.266;10.542;2023-07-24T04:41:05;2.88;;;1.98;;
73474;SDS011;61711;52.266;10.542;2023-07-24T04:43:31;3.75;;;2.00;;
73474;SDS011;61711;52.266;10.542;2023-07-24T04:45:57;3.20;;;1.70;;
73474;SDS011;61711;52.266;10.542;2023-07-24T04:48:23;2.88;;;1.83;;
73474;SDS011;61711;52.266;10.542;2023-07-24T04:50:53;2.28;;;1.90;;
73474;SDS011;61711;52.266;10.542;2023-07-24T04:53:22;3.63;;;2.17;;
73474;SDS011;61711;52.266;10.542;2023-07-24T04:55:48;2.28;;;1.90;;
73474;SDS011;61711;52.266;10.542;2023-07-24T04:58:14;2.22;;;2.03;;
73474;SDS011;61711;52.266;10.542;2023-07-24T05:00:40;3.30;;;1.83;;
73474;SDS011;61711;52.266;10.542;2023-07-24T05:03:06;4.00;;;2.05;;
73474;SDS011;61711;52.266;10.542;2023-07-24T05:05:36;2.92;;;1.92;;
73474;SDS011;61711;52.266;10.542;2023-07-24T05:08:02;4.50;;;2.13;;
73474;SDS011;61711;52.266;10.542;2023-07-24T05:10:28;2.45;;;1.80;;
73474;SDS011;61711;52.266;10.542;2023-07-24T05:12:54;2.17;;;1.70;;
73474;SDS011;61711;52.266;10.542;2023-07-24T05:15:21;3.13;;;1.90;;
73474;SDS011;61711;52.266;10.542;2023-07-24T05:17:47;2.72;;;1.90;;
73474;SDS011;61711;52.266;10.542;2023-07-24T05:20:13;2.33;;;2.00;;
73474;SDS011;61711;52.266;10.542;2023-07-24T05:22:39;2.90;;;2.15;;
73474;SDS011;61711;52.266;10.542;2023-07-24T05:25:06;2.50;;;1.92;;
73474;SDS011;61711;52.266;10.542;2023-07-24T05:27:32;4.32;;;2.00;;
73474;SDS011;61711;52.266;10.542;2023-07-24T05:29:58;2.25;;;1.92;;
73474;SDS011;61711;52.266;10.542;2023-07-24T05:32:24;2.17;;;1.85;;
73474;SDS011;61711;52.266;10.542;2023-07-24T05:34:50;4.60;;;2.38;;
73474;SDS011;61711;52.266;10.542;2023-07-24T05:37:16;2.55;;;1.95;;
73474;SDS011;61711;52.266;10.542;2023-07-24T05:39:42;4.15;;;2.10;;
73474;SDS011;61711;52.266;10.542;2023-07-24T05:42:08;2.58;;;1.90;;
73474;SDS011;61711;52.266;10.542;2023-07-24T05:44:35;2.53;;;1.90;;
73474;SDS011;61711;52.266;10.542;2023-07-24T05:47:02;3.35;;;2.10;;
73474;SDS011;61711;52.266;10.542;2023-07-24T05:49:28;2.88;;;2.10;;
73474;SDS011;61711;52.266;10.542;2023-07-24T05:51:54;3.30;;;2.10;;
73474;SDS011;61711;52.266;10.542;2023-07-24T05:54:21;2.78;;;2.20;;
73474;SDS011;61711;52.266;10.542;2023-07-24T05:56:48;3.88;;;2.50;;
73474;SDS011;61711;52.266;10.542;2023-07-24T05:59:14;3.58;;;2.13;;
73474;SDS011;61711;52.266;10.542;2023-07-24T06:01:40;2.55;;;2.13;;
73474;SDS011;61711;52.266;10.542;2023-07-24T06:04:06;3.45;;;2.10;;
73474;SDS011;61711;52.266;10.542;2023-07-24T06:06:32;3.22;;;2.10;;
73474;SDS011;61711;52.266;10.542;2023-07-24T06:08:58;4.15;;;2.30;;
73474;SDS011;61711;52.266;10.542;2023-07-24T06:11:24;3.50;;;2.25;;
73474;SDS011;61711;52.266;10.542;2023-07-24T06:13:52;2.63;;;2.20;;
73474;SDS011;61711;52.266;10.542;2023-07-24T06:16:18;3.63;;;2.10;;
73474;SDS011;61711;52.266;10.542;2023-07-24T06:18:44;4.57;;;2.17;;
73474;SDS011;61711;52.266;10.542;2023-07-24T06:21:10;2.97;;;2.45;;
73474;SDS011;61711;52.266;10.542;2023-07-24T06:23:36;2.83;;;2.40;;
73474;SDS011;61711;52.266;10.542;2023-07-24T06:26:02;3.85;;;2.20;;
73474;SDS011;61711;52.266;10.542;2023-07-24T06:28:28;5.00;;;2.13;;
73474;SDS011;61711;52.266;10.542;2023-07-24T06:30:54;3.50;;;2.40;;
73474;SDS011;61711;52.266;10.542;2023-07-24T06:33:20;2.65;;;2.03;;
73474;SDS011;61711;52.266;10.542;2023-07-24T06:35:50;2.75;;;2.20;;
73474;SDS011;61711;52.266;10.542;2023-07-24T06:38:16;7.85;;;2.88;;
73474;SDS011;61711;52.266;10.542;2023-07-24T06:40:42;5.15;;;2.70;;
73474;SDS011;61711;52.266;10.542;2023-07-24T06:43:08;3.70;;;2.30;;
73474;SDS011;61711;52.266;10.542;2023-07-24T06:45:34;3.08;;;2.20;;
73474;SDS011;61711;52.266;10.542;2023-07-24T06:48:00;3.42;;;2.13;;
73474;SDS011;61711;52.266;10.542;2023-07-24T06:50:26;4.95;;;2.50;;
73474;SDS011;61711;52.266;10.542;2023-07-24T06:52:52;3.10;;;2.22;;
73474;SDS011;61711;52.266;10.542;2023-07-24T06:55:19;2.90;;;2.20;;
73474;SDS011;61711;52.266;10.542;2023-07-24T06:57:45;3.78;;;2.30;;
73474;SDS011;61711;52.266;10.542;2023-07-24T07:00:11;3.35;;;2.38;;
73474;SDS011;61711;52.266;10.542;2023-07-24T07:02:37;3.60;;;2.28;;
73474;SDS011;61711;52.266;10.542;2023-07-24T07:05:04;3.92;;;2.78;;
73474;SDS011;61711;52.266;10.542;2023-07-24T07:07:30;4.25;;;3.00;;
73474;SDS011;61711;52.266;10.542;2023-07-24T07:09:56;3.85;;;2.70;;
73474;SDS011;61711;52.266;10.542;2023-07-24T07:12:22;3.83;;;2.20;;
73474;SDS011;61711;52.266;10.542;2023-07-24T07:14:48;4.53;;;2.58;;
73474;SDS011;61711;52.266;10.542;2023-07-24T07:17:14;4.10;;;2.58;;
73474;SDS011;61711;52.266;10.542;2023-07-24T07:19:40;3.88;;;2.50;;
73474;SDS011;61711;52.266;10.542;2023-07-24T07:22:06;2.78;;;2.47;;
73474;SDS011;61711;52.266;10.542;2023-07-24T07:24:32;5.35;;;2.42;;
73474;SDS011;61711;52.266;10.542;2023-07-24T07:26:58;3.35;;;2.60;;
73474;SDS011;61711;52.266;10.542;2023-07-24T07:29:24;5.28;;;2.53;;
73474;SDS011;61711;52.266;10.542;2023-07-24T07:31:50;3.20;;;2.40;;
73474;SDS011;61711;52.266;10.542;2023-07-24T07:34:16;4.32;;;2.47;;
73474;SDS011;61711;52.266;10.542;2023-07-24T07:36:42;5.97;;;2.35;;
73474;SDS011;61711;52.266;10.542;2023-07-24T07:39:08;3.25;;;2.42;;
73474;SDS011;61711;52.266;10.542;2023-07-24T07:41:34;3.22;;;2.40;;
73474;SDS011;61711;52.266;10.542;2023-07-24T07:44:00;3.67;;;2.65;;
73474;SDS011;61711;52.266;10.542;2023-07-24T07:46:26;3.60;;;2.40;;
73474;SDS011;61711;52.266;10.542;2023-07-24T07:48:52;5.10;;;2.67;;
73474;SDS011;61711;52.266;10.542;2023-07-24T07:51:18;3.65;;;2.38;;
73474;SDS011;61711;52.266;10.542;2023-07-24T07:53:44;4.32;;;2.78;;
73474;SDS011;61711;52.266;10.542;2023-07-24T07:56:10;3.72;;;2.83;;
73474;SDS011;61711;52.266;10.542;2023-07-24T07:58:36;3.50;;;2.70;;
73474;SDS011;61711;52.266;10.542;2023-07-24T08:01:03;5.45;;;2.83;;
73474;SDS011;61711;52.266;10.542;2023-07-24T08:03:29;6.30;;;2.78;;
73474;SDS011;61711;52.266;10.542;2023-07-24T08:05:58;4.30;;;3.03;;
73474;SDS011;61711;52.266;10.542;2023-07-24T08:08:24;5.32;;;3.35;;
73474;SDS011;61711;52.266;10.542;2023-07-24T08:10:50;5.32;;;2.97;;
73474;SDS011;61711;52.266;10.542;2023-07-24T08:13:16;3.50;;;2.85;;
73474;SDS011;61711;52.266;10.542;2023-07-24T08:15:42;7.38;;;3.10;;
73474;SDS011;61711;52.266;10.542;2023-07-24T08:18:08;6.32;;;3.25;;
73474;SDS011;61711;52.266;10.542;2023-07-24T08:20:37;5.68;;;3.30;;
73474;SDS011;61711;52.266;10.542;2023-07-24T08:23:06;7.22;;;3.47;;
73474;SDS011;61711;52.266;10.542;2023-07-24T08:25:32;5.57;;;3.25;;
73474;SDS011;61711;52.266;10.542;2023-07-24T08:27:58;4.93;;;3.13;;
73474;SDS011;61711;52.266;10.542;2023-07-24T08:30:24;6.50;;;2.92;;
73474;SDS011;61711;52.266;10.542;2023-07-24T08:32:50;4.50;;;3.22;;
73474;SDS011;61711;52.266;10.542;2023-07-24T08:35:18;5.30;;;3.33;;
73474;SDS011;61711;52.266;10.542;2023-07-24T08:37:44;5.50;;;3.35;;
73474;SDS011;61711;52.266;10.542;2023-07-24T08:40:10;7.20;;;3.60;;
73474;SDS011;61711;52.266;10.542;2023-07-24T08:42:39;5.82;;;3.30;;
73474;SDS011;61711;52.266;10.542;2023-07-24T08:45:11;6.28;;;3.05;;
73474;SDS011;61711;52.266;10.542;2023-07-24T08:47:44;5.72;;;3.38;;
73474;SDS011;61711;52.266;10.542;2023-07-24T08:50:10;4.60;;;2.97;;
73474;SDS011;61711;52.266;10.542;2023-07-24T08:52:40;6.00;;;3.30;;
73474;SDS011;61711;52.266;10.542;2023-07-24T08:55:07;7.18;;;3.65;;
73474;SDS011;61711;52.266;10.542;2023-07-24T08:57:34;6.30;;;3.60;;
73474;SDS011;61711;52.266;10.542;2023-07-24T09:00:00;7.20;;;3.42;;
73474;SDS011;61711;52.266;10.542;2023-07-24T09:02:29;7.60;;;4.10;;
73474;SDS011;61711;52.266;10.542;2023-07-24T09:04:55;5.85;;;3.38;;
73474;SDS011;61711;52.266;10.542;2023-07-24T09:07:21;4.85;;;3.17;;
73474;SDS011;61711;52.266;10.542;2023-07-24T09:09:47;5.63;;;3.20;;
73474;SDS011;61711;52.266;10.542;2023-07-24T09:12:15;6.90;;;3.60;;
73474;SDS011;61711;52.266;10.542;2023-07-24T09:14:41;7.22;;;4.15;;
73474;SDS011;61711;52.266;10.542;2023-07-24T09:17:10;5.85;;;3.58;;
73474;SDS011;61711;52.266;10.542;2023-07-24T09:19:36;4.45;;;2.97;;
73474;SDS011;61711;52.266;10.542;2023-07-24T09:24:35;4.38;;;3.15;;
73474;SDS011;61711;52.266;10.542;2023-07-24T09:27:04;5.22;;;3.30;;
73474;SDS011;61711;52.266;10.542;2023-07-24T09:29:31;4.80;;;3.40;;
73474;SDS011;61711;52.266;10.542;2023-07-24T09:31:57;6.05;;;3.20;;
73474;SDS011;61711;52.266;10.542;2023-07-24T09:34:27;5.10;;;3.28;;
73474;SDS011;61711;52.266;10.542;2023-07-24T09:36:53;6.45;;;3.15;;
73474;SDS011;61711;52.266;10.542;2023-07-24T09:39:28;4.85;;;2.90;;
73474;SDS011;61711;52.266;10.542;2023-07-24T09:42:02;4.07;;;2.72;;
73474;SDS011;61711;52.266;10.542;2023-07-24T09:44:28;4.60;;;3.03;;
73474;SDS011;61711;52.266;10.542;2023-07-24T09:46:55;3.55;;;3.00;;
73474;SDS011;61711;52.266;10.542;2023-07-24T09:49:21;3.67;;;2.60;;
73474;SDS011;61711;52.266;10.542;2023-07-24T09:51:47;3.50;;;2.88;;
73474;SDS011;61711;52.266;10.542;2023-07-24T09:54:17;4.60;;;2.80;;
73474;SDS011;61711;52.266;10.542;2023-07-24T09:56:44;5.97;;;2.90;;
73474;SDS011;61711;52.266;10.542;2023-07-24T09:59:10;5.03;;;2.90;;
73474;SDS011;61711;52.266;10.542;2023-07-24T10:01:37;4.43;;;2.80;;
73474;SDS011;61711;52.266;10.542;2023-07-24T10:04:04;4.05;;;2.92;;
73474;SDS011;61711;52.266;10.542;2023-07-24T10:06:30;4.03;;;2.88;;
73474;SDS011;61711;52.266;10.542;2023-07-24T10:08:56;3.25;;;2.70;;
73474;SDS011;61711;52.266;10.542;2023-07-24T10:11:23;5.22;;;3.22;;
73474;SDS011;61711;52.266;10.542;2023-07-24T10:13:49;3.70;;;2.72;;
73474;SDS011;61711;52.266;10.542;2023-07-24T10:16:15;3.45;;;2.60;;
73474;SDS011;61711;52.266;10.542;2023-07-24T10:18:45;4.90;;;3.00;;
73474;SDS011;61711;52.266;10.542;2023-07-24T10:21:11;6.35;;;3.08;;
73474;SDS011;61711;52.266;10.542;2023-07-24T10:23:42;4.38;;;2.88;;
73474;SDS011;61711;52.266;10.542;2023-07-24T10:26:08;5.70;;;3.08;;
73474;SDS011;61711;52.266;10.542;2023-07-24T10:28:35;3.80;;;2.78;;
73474;SDS011;61711;52.266;10.542;2023-07-24T10:31:05;3.78;;;2.80;;
73474;SDS011;61711;52.266;10.542;2023-07-24T10:33:35;3.15;;;2.47;;
73474;SDS011;61711;52.266;10.542;2023-07-24T10:36:07;2.95;;;2.20;;
73474;SDS011;61711;52.266;10.542;2023-07-24T10:38:38;2.95;;;2.20;;
73474;SDS011;61711;52.266;10.542;2023-07-24T10:41:05;3.90;;;2.15;;
73474;SDS011;61711;52.266;10.542;2023-07-24T10:43:45;3.60;;;2.10;;
73474;SDS011;61711;52.266;10.542;2023-07-24T10:46:12;2.88;;;2.17;;
73474;SDS011;61711;52.266;10.542;2023-07-24T10:48:41;2.80;;;1.80;;
73474;SDS011;61711;52.266;10.542;2023-07-24T10:51:08;3.00;;;1.92;;
73474;SDS011;61711;52.266;10.542;2023-07-24T10:53:34;3.78;;;1.85;;
73474;SDS011;61711;52.266;10.542;2023-07-24T10:56:01;2.75;;;1.70;;
73474;SDS011;61711;52.266;10.542;2023-07-24T10:58:27;2.20;;;1.65;;
73474;SDS011;61711;52.266;10.542;2023-07-24T11:00:53;2.72;;;1.77;;
73474;SDS011;61711;52.266;10.542;2023-07-24T11:03:20;2.58;;;1.63;;
73474;SDS011;61711;52.266;10.542;2023-07-24T11:05:47;2.60;;;1.80;;
73474;SDS011;61711;52.266;10.542;2023-07-24T11:08:14;3.67;;;2.00;;
73474;SDS011;61711;52.266;10.542;2023-07-24T11:10:51;2.63;;;1.90;;
73474;SDS011;61711;52.266;10.542;2023-07-24T11:13:18;2.67;;;1.90;;
73474;SDS011;61711;52.266;10.542;2023-07-24T11:15:44;2.10;;;1.88;;
73474;SDS011;61711;52.266;10.542;2023-07-24T11:18:10;3.17;;;2.08;;
73474;SDS011;61711;52.266;10.542;2023-07-24T11:20:58;3.47;;;1.83;;
73474;SDS011;61711;52.266;10.542;2023-07-24T11:23:23;2.65;;;2.00;;
73474;SDS011;61711;52.266;10.542;2023-07-24T11:25:50;3.15;;;2.03;;
73474;SDS011;61711;52.266;10.542;2023-07-24T11:28:16;3.03;;;1.98;;
73474;SDS011;61711;52.266;10.542;2023-07-24T11:30:42;2.60;;;2.28;;
73474;SDS011;61711;52.266;10.542;2023-07-24T11:33:09;2.50;;;1.90;;
73474;SDS011;61711;52.266;10.542;2023-07-24T11:35:36;2.22;;;1.73;;
73474;SDS011;61711;52.266;10.542;2023-07-24T11:38:03;2.22;;;2.00;;
73474;SDS011;61711;52.266;10.542;2023-07-24T11:40:33;4.03;;;2.30;;
73474;SDS011;61711;52.266;10.542;2023-07-24T11:43:00;3.75;;;2.25;;
73474;SDS011;61711;52.266;10.542;2023-07-24T11:45:26;2.25;;;1.95;;
73474;SDS011;61711;52.266;10.542;2023-07-24T11:47:52;3.25;;;2.33;;
73474;SDS011;61711;52.266;10.542;2023-07-24T11:50:19;4.28;;;2.38;;
73474;SDS011;61711;52.266;10.542;2023-07-24T11:52:46;4.53;;;2.30;;
73474;SDS011;61711;52.266;10.542;2023-07-24T11:55:13;2.97;;;2.40;;
73474;SDS011;61711;52.266;10.542;2023-07-24T11:57:40;3.65;;;2.60;;
73474;SDS011;61711;52.266;10.542;2023-07-24T12:00:16;3.45;;;2.50;;
73474;SDS011;61711;52.266;10.542;2023-07-24T12:02:43;2.75;;;2.17;;
73474;SDS011;61711;52.266;10.542;2023-07-24T12:05:09;2.63;;;2.10;;
73474;SDS011;61711;52.266;10.542;2023-07-24T12:07:35;3.20;;;2.50;;
73474;SDS011;61711;52.266;10.542;2023-07-24T12:10:02;3.97;;;2.50;;
73474;SDS011;61711;52.266;10.542;2023-07-24T12:12:47;3.30;;;2.40;;
73474;SDS011;61711;52.266;10.542;2023-07-24T12:15:14;2.90;;;2.33;;
73474;SDS011;61711;52.266;10.542;2023-07-24T12:17:40;4.65;;;2.55;;
73474;SDS011;61711;52.266;10.542;2023-07-24T12:20:07;3.92;;;2.45;;
73474;SDS011;61711;52.266;10.542;2023-07-24T12:22:34;3.10;;;2.42;;
73474;SDS011;61711;52.266;10.542;2023-07-24T12:25:01;4.63;;;2.67;;
73474;SDS011;61711;52.266;10.542;2023-07-24T12:27:27;4.15;;;2.70;;
73474;SDS011;61711;52.266;10.542;2023-07-24T12:29:53;3.28;;;2.53;;
73474;SDS011;61711;52.266;10.542;2023-07-24T12:32:19;4.45;;;2.75;;
73474;SDS011;61711;52.266;10.542;2023-07-24T12:34:46;3.33;;;2.30;;
73474;SDS011;61711;52.266;10.542;2023-07-24T12:37:12;3.83;;;2.58;;
73474;SDS011;61711;52.266;10.542;2023-07-24T12:39:38;4.13;;;2.80;;
73474;SDS011;61711;52.266;10.542;2023-07-24T12:42:05;5.80;;;2.80;;
73474;SDS011;61711;52.266;10.542;2023-07-24T12:44:31;3.47;;;3.17;;
73474;SDS011;61711;52.266;10.542;2023-07-24T12:46:57;3.78;;;3.10;;
73474;SDS011;61711;52.266;10.542;2023-07-24T12:49:23;3.72;;;3.08;;
73474;SDS011;61711;52.266;10.542;2023-07-24T12:51:49;3.35;;;3.05;;
73474;SDS011;61711;52.266;10.542;2023-07-24T12:54:15;4.05;;;3.22;;
73474;SDS011;61711;52.266;10.542;2023-07-24T12:56:44;6.78;;;3.08;;
73474;SDS011;61711;52.266;10.542;2023-07-24T12:59:10;4.10;;;3.05;;
73474;SDS011;61711;52.266;10.542;2023-07-24T13:01:36;4.45;;;3.00;;
73474;SDS011;61711;52.266;10.542;2023-07-24T13:04:02;4.38;;;2.95;;
73474;SDS011;61711;52.266;10.542;2023-07-24T13:06:28;4.63;;;3.30;;
73474;SDS011;61711;52.266;10.542;2023-07-24T13:08:54;4.00;;;3.10;;
73474;SDS011;61711;52.266;10.542;2023-07-24T13:11:20;3.80;;;2.88;;
73474;SDS011;61711;52.266;10.542;2023-07-24T13:13:46;4.13;;;2.65;;
73474;SDS011;61711;52.266;10.542;2023-07-24T13:16:12;4.40;;;3.03;;
73474;SDS011;61711;52.266;10.542;2023-07-24T13:18:38;4.10;;;3.10;;
73474;SDS011;61711;52.266;10.542;2023-07-24T13:21:04;3.75;;;3.30;;
73474;SDS011;61711;52.266;10.542;2023-07-24T13:23:32;6.30;;;3.10;;
73474;SDS011;61711;52.266;10.542;2023-07-24T13:25:58;5.47;;;3.75;;
73474;SDS011;61711;52.266;10.542;2023-07-24T13:28:24;4.25;;;3.80;;
73474;SDS011;61711;52.266;10.542;2023-07-24T13:30:50;7.40;;;4.03;;
73474;SDS011;61711;52.266;10.542;2023-07-24T13:33:16;6.07;;;4.20;;
73474;SDS011;61711;52.266;10.542;2023-07-24T13:35:42;4.78;;;4.20;;
73474;SDS011;61711;52.266;10.542;2023-07-24T13:38:08;5.53;;;4.60;;
73474;SDS011;61711;52.266;10.542;2023-07-24T13:40:35;5.63;;;4.60;;
73474;SDS011;61711;52.266;10.542;2023-07-24T13:43:01;6.03;;;4.80;;
73474;SDS011;61711;52.266;10.542;2023-07-24T13:45:27;9.18;;;5.38;;
73474;SDS011;61711;52.266;10.542;2023-07-24T13:47:54;5.35;;;4.82;;
73474;SDS011;61711;52.266;10.542;2023-07-24T13:50:20;5.72;;;4.70;;
73474;SDS011;61711;52.266;10.542;2023-07-24T13:52:46;6.13;;;4.55;;
73474;SDS011;61711;52.266;10.542;2023-07-24T13:55:12;6.80;;;5.35;;
73474;SDS011;61711;52.266;10.542;2023-07-24T13:57:39;5.35;;;4.70;;
73474;SDS011;61711;52.266;10.542;2023-07-24T14:00:05;5.00;;;4.38;;
73474;SDS011;61711;52.266;10.542;2023-07-24T14:02:31;6.65;;;4.57;;
73474;SDS011;61711;52.266;10.542;2023-07-24T14:04:57;4.72;;;4.15;;
73474;SDS011;61711;52.266;10.542;2023-07-24T14:07:23;5.18;;;4.07;;
73474;SDS011;61711;52.266;10.542;2023-07-24T14:09:49;4.15;;;3.55;;
73474;SDS011;61711;52.266;10.542;2023-07-24T14:12:15;3.60;;;3.30;;
73474;SDS011;61711;52.266;10.542;2023-07-24T14:14:41;4.28;;;3.70;;
73474;SDS011;61711;52.266;10.542;2023-07-24T14:17:07;6.15;;;3.70;;
73474;SDS011;61711;52.266;10.542;2023-07-24T14:19:33;8.00;;;3.90;;
73474;SDS011;61711;52.266;10.542;2023-07-24T14:21:59;4.10;;;3.70;;
73474;SDS011;61711;52.266;10.542;2023-07-24T14:24:26;4.90;;;4.10;;
73474;SDS011;61711;52.266;10.542;2023-07-24T14:26:52;6.28;;;3.80;;
73474;SDS011;61711;52.266;10.542;2023-07-24T14:29:18;4.57;;;4.07;;
73474;SDS011;61711;52.266;10.542;2023-07-24T14:31:44;4.47;;;3.75;;
73474;SDS011;61711;52.266;10.542;2023-07-24T14:34:10;4.63;;;3.72;;